Time;durP1;ratioP1;P1;durP2;ratioP2;P2;SDS_P1;SDS_P2;PMS_P1;PMS_P2;Temp;Humidity;BMP_temperature;BMP_pressure;BME280_temperature;BME280_humidity;BME280_pressure;Samples;Min_cycle;Max_cycle;Signal;HPM_P1;HPM_P2
2022/01/19 00:01:23;;;;;;;74.22;27.65;;;5.40;99.90;;;;;;5101777;27;20100;-66
2022/01/19 00:03:49;;;;;;;71.93;26.55;;;5.40;99.90;;;;;;5100211;28;20043;-66
2022/01/19 00:06:16;;;;;;;67.40;26.48;;;5.30;99.90;;;;;;5096814;28;20044;-66
2022/01/19 00:08:43;;;;;;;72.28;25.75;;;5.30;99.90;;;;;;5098321;28;20467;-66
2022/01/19 00:11:09;;;;;;;62.80;25.08;;;5.30;99.90;;;;;;5098313;28;20044;-68
2022/01/19 00:13:35;;;;;;;68.32;26.27;;;5.30;99.90;;;;;;5113298;27;20066;-65
2022/01/19 00:16:00;;;;;;;58.80;23.45;;;5.30;99.90;;;;;;5118129;27;20059;-66
2022/01/19 00:18:27;;;;;;;56.75;22.67;;;5.20;99.90;;;;;;5119059;27;20606;-66
2022/01/19 00:20:54;;;;;;;47.13;21.00;;;5.20;99.90;;;;;;5118645;27;20058;-66
2022/01/19 00:23:21;;;;;;;49.88;21.40;;;5.10;99.90;;;;;;5117360;27;20502;-66
2022/01/19 00:25:48;;;;;;;52.05;22.98;;;5.10;99.90;;;;;;5118439;27;20496;-65
2022/01/19 00:28:14;;;;;;;54.50;23.15;;;5.00;99.90;;;;;;5118376;27;20147;-65
2022/01/19 00:30:40;;;;;;;65.65;24.05;;;4.90;99.90;;;;;;5101226;27;20047;-66
2022/01/19 00:33:07;;;;;;;64.95;24.02;;;4.80;99.90;;;;;;5105765;28;20205;-66
2022/01/19 00:35:35;;;;;;;60.63;23.98;;;5.10;99.90;;;;;;5097864;28;20031;-67
2022/01/19 00:38:02;;;;;;;58.67;24.25;;;4.90;99.90;;;;;;5080812;28;20104;-65
2022/01/19 00:40:28;;;;;;;66.15;23.60;;;5.00;99.90;;;;;;5097632;28;20123;-66
2022/01/19 00:42:54;;;;;;;58.25;23.33;;;5.00;99.90;;;;;;5107005;27;20463;-68
2022/01/19 00:45:21;;;;;;;70.82;24.48;;;5.00;99.90;;;;;;5101043;27;20104;-64
2022/01/19 00:47:46;;;;;;;74.70;26.88;;;5.00;99.90;;;;;;5118208;27;20163;-65
2022/01/19 00:50:15;;;;;;;75.15;25.00;;;5.00;99.90;;;;;;5117849;27;20455;-65
2022/01/19 00:52:41;;;;;;;72.95;27.38;;;5.00;99.90;;;;;;5116751;27;20518;-64
2022/01/19 00:55:10;;;;;;;74.15;26.20;;;5.00;99.90;;;;;;5117903;27;20035;-66
2022/01/19 00:57:36;;;;;;;70.85;25.60;;;5.00;99.90;;;;;;5117793;27;20053;-66
2022/01/19 01:00:04;;;;;;;77.00;26.55;;;5.00;99.90;;;;;;5117654;27;20035;-65
2022/01/19 01:02:31;;;;;;;66.43;25.10;;;5.00;99.90;;;;;;5116507;27;20047;-65
2022/01/19 01:04:56;;;;;;;68.63;25.98;;;4.90;99.90;;;;;;5117517;27;20126;-65
2022/01/19 01:07:22;;;;;;;74.45;26.02;;;5.00;99.90;;;;;;5135947;27;20078;-65
2022/01/19 01:09:48;;;;;;;65.97;24.70;;;5.00;99.90;;;;;;5117471;27;20047;-66
2022/01/19 01:12:21;;;;;;;77.20;27.33;;;5.00;99.90;;;;;;5112612;28;20035;-66
2022/01/19 01:20:18;;;;;;;;;;;5.00;99.90;;;;;;5097500;28;20052;-66
2022/01/19 01:22:45;;;;;;;136.35;26.45;;;4.90;99.90;;;;;;5104592;27;19919;-66
2022/01/19 01:25:10;;;;;;;131.82;25.77;;;4.80;99.90;;;;;;5117443;27;20078;-66
2022/01/19 01:27:36;;;;;;;205.60;25.33;;;4.70;99.90;;;;;;5117278;27;20097;-66
2022/01/19 01:30:03;;;;;;;113.50;23.83;;;4.70;99.90;;;;;;5117323;27;20039;-66
2022/01/19 01:32:29;;;;;;;107.10;26.40;;;4.70;99.90;;;;;;5115802;27;20039;-66
2022/01/19 01:34:54;;;;;;;260.35;30.10;;;4.60;99.90;;;;;;5099986;27;20092;-66
2022/01/19 01:37:20;;;;;;;129.65;25.85;;;4.70;99.90;;;;;;5116877;27;20050;-66
2022/01/19 01:39:46;;;;;;;187.85;30.50;;;4.60;99.90;;;;;;5117043;27;20126;-65
2022/01/19 01:42:17;;;;;;;104.15;27.55;;;4.60;99.90;;;;;;5112203;28;20047;-66
2022/01/19 01:44:46;;;;;;;88.20;25.20;;;4.70;99.90;;;;;;5096499;28;20050;-66
2022/01/19 01:47:13;;;;;;;159.63;29.15;;;4.60;99.90;;;;;;5096418;28;20186;-66
2022/01/19 01:49:46;;;;;;;81.22;25.10;;;4.60;99.90;;;;;;5096604;28;20046;-68
2022/01/19 01:54:58;;;;;;;119.57;26.42;;;4.50;99.90;;;;;;5116340;27;20337;-66
2022/01/19 01:57:24;;;;;;;147.02;26.63;;;4.50;99.90;;;;;;5099730;27;20050;-66
2022/01/19 01:59:50;;;;;;;61.47;22.17;;;4.50;99.90;;;;;;5116676;27;20380;-67
2022/01/19 02:02:16;;;;;;;137.30;24.70;;;4.50;99.90;;;;;;5094876;28;20118;-65
2022/01/19 02:04:41;;;;;;;181.98;26.88;;;4.30;99.90;;;;;;5104919;27;20122;-66
2022/01/19 02:09:47;;;;;;;205.98;26.52;;;4.20;99.90;;;;;;5104247;27;20039;-66
2022/01/19 02:23:23;;;;;;;129.05;27.30;;;4.00;99.90;;;;;;5103981;28;20117;-65
2022/01/19 02:25:55;;;;;;;79.15;26.70;;;4.00;99.90;;;;;;5095521;28;20044;-66
2022/01/19 02:41:45;;;;;;;119.57;24.43;;;4.00;99.90;;;;;;5095091;28;20101;-64
2022/01/19 02:44:16;;;;;;;134.27;24.42;;;4.10;99.90;;;;;;5114848;28;20114;-66
2022/01/19 02:49:26;;;;;;;128.88;25.65;;;4.10;99.90;;;;;;5115774;28;20344;-65
2022/01/19 02:51:54;;;;;;;157.65;24.50;;;4.10;99.90;;;;;;5097448;28;20046;-66
2022/01/19 02:54:22;;;;;;;113.18;21.75;;;4.10;99.90;;;;;;5095165;28;20043;-66
2022/01/19 02:56:55;;;;;;;104.70;22.55;;;4.00;99.90;;;;;;5095207;28;20133;-66
2022/01/19 03:09:46;;;;;;;155.43;26.70;;;3.90;99.90;;;;;;5095474;28;20090;-65
2022/01/19 03:12:12;;;;;;;118.72;24.45;;;3.90;99.90;;;;;;5097186;28;20043;-67
2022/01/19 03:14:38;;;;;;;98.55;22.85;;;3.80;99.90;;;;;;5115367;28;20031;-65
2022/01/19 03:17:05;;;;;;;128.25;23.88;;;3.80;99.90;;;;;;5115024;28;20105;-64
2022/01/19 03:19:32;;;;;;;126.43;26.40;;;3.80;99.90;;;;;;5115246;28;20050;-65
2022/01/19 03:21:58;;;;;;;239.52;28.73;;;3.70;99.90;;;;;;5097377;28;20042;-65
2022/01/19 03:24:24;;;;;;;188.23;26.45;;;3.70;99.90;;;;;;5095072;28;20701;-65
2022/01/19 03:26:51;;;;;;;151.70;24.15;;;3.70;99.90;;;;;;5095131;28;20082;-66
2022/01/19 03:29:17;;;;;;;260.80;28.60;;;3.60;99.90;;;;;;5095102;28;20445;-65
2022/01/19 03:31:43;;;;;;;274.42;30.63;;;3.60;99.90;;;;;;5077639;28;20035;-66
2022/01/19 03:34:10;;;;;;;165.32;26.73;;;3.50;99.90;;;;;;5114492;28;20041;-66
2022/01/19 03:36:36;;;;;;;167.05;25.50;;;3.50;99.90;;;;;;5098446;28;20027;-66
2022/01/19 03:39:02;;;;;;;174.80;26.40;;;3.50;99.90;;;;;;5115586;28;20099;-66
2022/01/19 03:41:28;;;;;;;84.80;22.63;;;3.40;99.90;;;;;;5117966;27;20389;-65
2022/01/19 03:43:55;;;;;;;100.47;23.38;;;3.30;99.90;;;;;;5118753;27;20047;-66
2022/01/19 03:46:29;;;;;;;110.22;23.10;;;3.40;99.90;;;;;;5102308;27;20047;-65
2022/01/19 03:48:57;;;;;;;89.70;22.75;;;3.30;99.90;;;;;;5119052;27;20061;-65
2022/01/19 03:51:24;;;;;;;73.28;21.52;;;3.30;99.90;;;;;;5101687;27;20535;-64
2022/01/19 03:53:50;;;;;;;83.20;23.10;;;3.30;99.90;;;;;;5117721;27;20043;-65
2022/01/19 03:56:18;;;;;;;71.10;21.70;;;3.30;99.90;;;;;;5137099;27;20047;-65
2022/01/19 03:58:44;;;;;;;87.03;22.05;;;3.30;99.90;;;;;;5118908;27;20034;-65
2022/01/19 04:01:11;;;;;;;161.20;27.15;;;3.30;99.90;;;;;;5118527;27;20118;-67
2022/01/19 04:06:28;;;;;;;62.75;20.35;;;3.10;99.90;;;;;;5118423;27;20134;-65
2022/01/19 04:08:54;;;;;;;89.07;21.20;;;3.20;99.90;;;;;;5118843;27;20478;-66
2022/01/19 04:11:22;;;;;;;94.88;22.15;;;3.30;99.90;;;;;;5118532;27;20050;-65
2022/01/19 04:16:31;;;;;;;74.00;20.45;;;3.20;99.90;;;;;;5136402;27;20055;-65
2022/01/19 04:19:10;;;;;;;63.95;20.92;;;3.20;99.90;;;;;;5118213;27;20043;-65
2022/01/19 04:21:36;;;;;;;82.20;21.70;;;3.20;99.90;;;;;;5117991;27;20042;-65
2022/01/19 04:24:02;;;;;;;93.30;21.65;;;3.30;99.90;;;;;;5100542;28;20040;-66
2022/01/19 04:26:27;;;;;;;70.07;22.70;;;3.30;99.90;;;;;;5097717;28;20431;-66
2022/01/19 04:28:53;;;;;;;63.45;21.08;;;3.30;99.90;;;;;;5097551;28;20036;-66
2022/01/19 04:31:18;;;;;;;56.75;20.10;;;3.30;99.90;;;;;;5098020;28;20043;-66
2022/01/19 04:33:45;;;;;;;93.57;20.77;;;3.30;99.90;;;;;;5097456;28;20068;-66
2022/01/19 05:03:45;;;;;;;36.60;21.08;;;3.40;99.90;;;;;;5109737;27;20043;-67
2022/01/19 05:06:15;;;;;;;34.95;20.90;;;3.50;99.90;;;;;;5117422;27;20054;-64
2022/01/19 05:08:56;;;;;;;33.50;20.42;;;3.50;99.90;;;;;;5134713;27;20353;-65
2022/01/19 05:14:07;;;;;;;38.10;21.77;;;3.50;99.90;;;;;;5098982;28;20411;-65
2022/01/19 05:16:32;;;;;;;35.97;20.92;;;3.50;99.90;;;;;;5100975;28;20449;-66
2022/01/19 05:18:58;;;;;;;33.30;20.65;;;3.50;99.90;;;;;;5113595;28;20039;-66
2022/01/19 05:21:24;;;;;;;36.92;21.50;;;3.50;99.90;;;;;;5096862;28;20035;-65
2022/01/19 05:23:50;;;;;;;36.22;21.90;;;3.50;99.90;;;;;;5108208;28;20494;-64
2022/01/19 05:26:16;;;;;;;39.28;22.38;;;3.50;99.90;;;;;;5096524;28;20035;-65
2022/01/19 05:28:42;;;;;;;38.70;21.33;;;3.50;99.90;;;;;;5096393;28;20039;-64
2022/01/19 05:31:08;;;;;;;40.15;21.52;;;3.50;99.90;;;;;;5113324;28;20042;-65
2022/01/19 05:33:34;;;;;;;32.83;20.40;;;3.50;99.90;;;;;;5112771;28;20031;-66
2022/01/19 05:35:59;;;;;;;36.47;20.67;;;3.60;99.90;;;;;;5113502;28;20067;-66
2022/01/19 05:38:25;;;;;;;36.90;21.17;;;3.60;99.90;;;;;;5113590;28;20039;-66
2022/01/19 05:40:51;;;;;;;35.40;21.80;;;3.50;99.90;;;;;;5096403;28;20082;-67
2022/01/19 05:43:17;;;;;;;34.75;20.45;;;3.50;99.90;;;;;;5095980;28;20043;-65
2022/01/19 05:45:43;;;;;;;36.92;21.95;;;3.50;99.90;;;;;;5113191;28;20379;-66
2022/01/19 05:48:08;;;;;;;42.30;22.73;;;3.50;99.90;;;;;;5113138;28;20392;-66
2022/01/19 05:50:35;;;;;;;39.35;22.60;;;3.50;99.90;;;;;;5079666;28;20101;-65
2022/01/19 05:53:00;;;;;;;38.78;22.35;;;3.60;99.90;;;;;;5108254;28;20036;-66
2022/01/19 05:55:27;;;;;;;38.55;21.42;;;3.50;99.90;;;;;;5106993;28;20062;-66
2022/01/19 05:57:53;;;;;;;42.45;21.65;;;3.60;99.90;;;;;;5106714;28;20035;-66
2022/01/19 06:00:19;;;;;;;36.83;21.30;;;3.50;99.90;;;;;;5090156;27;20106;-65
2022/01/19 06:02:44;;;;;;;33.10;20.30;;;3.50;99.90;;;;;;5111618;27;20046;-64
2022/01/19 06:05:10;;;;;;;36.03;21.17;;;3.50;99.90;;;;;;5103998;27;20392;-66
2022/01/19 06:07:46;;;;;;;37.00;21.02;;;3.50;99.90;;;;;;5094029;28;20440;-66
2022/01/19 06:12:58;;;;;;;40.67;22.80;;;3.50;99.90;;;;;;5130883;27;20411;-67
2022/01/19 06:15:24;;;;;;;37.22;21.40;;;3.50;99.90;;;;;;5099196;27;20122;-66
2022/01/19 06:17:49;;;;;;;35.13;20.05;;;3.50;99.90;;;;;;5116037;27;20051;-65
2022/01/19 06:20:15;;;;;;;38.38;21.48;;;3.50;99.90;;;;;;5092069;27;20057;-65
2022/01/19 06:22:41;;;;;;;39.10;20.83;;;3.50;99.90;;;;;;5110055;28;20398;-65
2022/01/19 06:25:07;;;;;;;33.67;21.15;;;3.50;99.90;;;;;;5096445;27;20039;-65
2022/01/19 06:27:33;;;;;;;35.50;21.50;;;3.50;99.90;;;;;;5116355;27;20065;-65
2022/01/19 06:29:58;;;;;;;37.60;21.33;;;3.50;99.90;;;;;;5115340;27;20455;-64
2022/01/19 06:32:24;;;;;;;38.05;22.15;;;3.50;99.90;;;;;;5114443;27;20035;-68
2022/01/19 06:34:50;;;;;;;34.33;21.90;;;3.50;99.90;;;;;;5099381;28;20039;-66
2022/01/19 06:37:17;;;;;;;40.95;21.20;;;3.60;99.90;;;;;;5115255;28;20468;-66
2022/01/19 06:39:43;;;;;;;35.50;20.25;;;3.60;99.90;;;;;;5115797;28;20459;-66
2022/01/19 06:42:08;;;;;;;35.72;20.27;;;3.60;99.90;;;;;;5114311;28;20046;-66
2022/01/19 06:44:34;;;;;;;34.63;19.73;;;3.60;99.90;;;;;;5134371;27;20050;-66
2022/01/19 06:47:00;;;;;;;40.08;21.05;;;3.50;99.90;;;;;;5133812;28;20424;-66
2022/01/19 06:49:26;;;;;;;36.08;21.13;;;3.50;99.90;;;;;;5116073;28;20118;-67
2022/01/19 06:51:51;;;;;;;37.28;22.23;;;3.50;99.90;;;;;;5098581;28;20035;-66
2022/01/19 06:54:17;;;;;;;38.00;21.65;;;3.50;99.90;;;;;;5115084;28;20115;-68
2022/01/19 06:56:42;;;;;;;40.00;21.77;;;3.40;99.90;;;;;;5115791;28;20122;-70
2022/01/19 06:59:08;;;;;;;37.05;20.77;;;3.40;99.90;;;;;;5115772;28;20089;-68
2022/01/19 07:01:35;;;;;;;42.95;22.42;;;3.50;99.90;;;;;;5115159;28;20502;-68
2022/01/19 07:04:02;;;;;;;38.05;21.48;;;3.40;99.90;;;;;;5114512;28;20061;-65
2022/01/19 07:06:31;;;;;;;43.55;24.52;;;3.40;99.90;;;;;;5106186;28;20123;-66
2022/01/19 07:08:57;;;;;;;48.72;23.40;;;3.50;99.90;;;;;;5102544;28;20093;-65
2022/01/19 07:11:23;;;;;;;44.47;24.52;;;3.50;99.90;;;;;;5100796;28;20047;-65
2022/01/19 07:13:48;;;;;;;47.17;24.35;;;3.50;99.90;;;;;;5108015;28;20039;-66
2022/01/19 07:16:16;;;;;;;45.97;24.65;;;3.50;99.90;;;;;;5113229;27;20385;-66
2022/01/19 07:18:43;;;;;;;44.58;23.60;;;3.50;99.90;;;;;;5129692;27;20790;-68
2022/01/19 07:21:10;;;;;;;47.13;25.42;;;3.60;99.90;;;;;;5126469;27;20027;-67
2022/01/19 07:23:35;;;;;;;45.50;24.27;;;3.50;99.90;;;;;;5124416;27;20062;-67
2022/01/19 07:26:01;;;;;;;49.15;24.38;;;3.60;99.90;;;;;;5131145;27;20046;-65
2022/01/19 07:28:26;;;;;;;48.95;24.95;;;3.60;99.90;;;;;;5133265;27;20070;-66
2022/01/19 07:30:52;;;;;;;45.63;23.42;;;3.60;99.90;;;;;;5139963;27;20091;-66
2022/01/19 07:33:18;;;;;;;44.53;24.00;;;3.60;99.90;;;;;;5121692;27;20073;-66
2022/01/19 07:35:45;;;;;;;48.42;25.15;;;3.60;99.90;;;;;;5123027;27;20038;-66
2022/01/19 07:38:11;;;;;;;46.40;24.98;;;3.60;99.90;;;;;;5123558;27;20476;-66
2022/01/19 07:40:37;;;;;;;47.67;25.00;;;3.60;99.90;;;;;;5139712;27;20088;-66
2022/01/19 07:43:02;;;;;;;44.30;23.75;;;3.60;99.90;;;;;;5131300;27;20122;-65
2022/01/19 07:45:28;;;;;;;47.75;24.08;;;3.60;99.90;;;;;;5119405;27;20097;-67
2022/01/19 07:47:55;;;;;;;42.63;22.73;;;3.60;99.90;;;;;;5119290;27;20042;-67
2022/01/19 07:50:20;;;;;;;40.22;21.38;;;3.60;99.90;;;;;;5119028;27;20046;-68
2022/01/19 07:52:46;;;;;;;42.75;23.15;;;3.60;99.90;;;;;;5123914;27;20031;-64
2022/01/19 07:55:12;;;;;;;46.08;23.20;;;3.60;99.90;;;;;;5139501;27;20034;-67
2022/01/19 07:57:40;;;;;;;44.97;22.17;;;3.60;99.90;;;;;;5137922;27;20052;-67
2022/01/19 08:00:07;;;;;;;40.28;23.35;;;3.60;99.90;;;;;;5139548;27;20091;-67
2022/01/19 08:02:34;;;;;;;41.70;22.20;;;3.60;99.90;;;;;;5135394;27;20039;-68
2022/01/19 08:05:00;;;;;;;44.78;24.60;;;3.60;99.90;;;;;;5101750;27;20331;-66
2022/01/19 08:07:26;;;;;;;43.20;22.48;;;3.60;99.90;;;;;;5119298;27;20061;-66
2022/01/19 08:09:52;;;;;;;45.50;24.35;;;3.70;99.90;;;;;;5118883;27;20423;-66
2022/01/19 08:12:17;;;;;;;46.85;24.60;;;3.80;99.90;;;;;;5119299;27;20039;-66
2022/01/19 08:14:43;;;;;;;50.65;25.80;;;3.70;99.90;;;;;;5139636;27;20045;-68
2022/01/19 08:17:11;;;;;;;40.88;22.10;;;3.70;99.90;;;;;;5121673;27;20450;-67
2022/01/19 08:19:37;;;;;;;41.85;23.80;;;3.70;99.90;;;;;;5121826;27;20042;-66
2022/01/19 08:22:03;;;;;;;44.10;23.73;;;3.70;99.90;;;;;;5129352;27;20044;-64
2022/01/19 08:24:28;;;;;;;41.53;23.42;;;3.80;99.90;;;;;;5126071;27;20031;-66
2022/01/19 08:26:55;;;;;;;41.53;22.77;;;3.80;99.90;;;;;;5137395;27;20061;-67
2022/01/19 08:29:21;;;;;;;46.85;25.13;;;3.80;99.90;;;;;;5135601;27;20048;-66
2022/01/19 08:31:47;;;;;;;41.10;24.27;;;3.80;99.90;;;;;;5123053;27;20103;-67
2022/01/19 08:34:13;;;;;;;41.20;23.15;;;3.80;99.90;;;;;;5120856;27;20043;-66
2022/01/19 08:36:38;;;;;;;45.83;24.50;;;3.70;99.90;;;;;;5117976;27;20077;-67
2022/01/19 08:39:04;;;;;;;40.47;24.30;;;3.80;99.90;;;;;;5101000;27;20114;-66
2022/01/19 08:41:30;;;;;;;46.78;25.10;;;3.80;99.90;;;;;;5118271;27;20031;-67
2022/01/19 08:43:56;;;;;;;46.65;25.67;;;3.80;99.90;;;;;;5132879;27;20316;-67
2022/01/19 08:46:22;;;;;;;41.50;23.90;;;3.90;99.90;;;;;;5138678;27;20035;-65
2022/01/19 08:48:47;;;;;;;41.80;24.38;;;3.90;99.90;;;;;;5121329;27;20042;-66
2022/01/19 08:51:13;;;;;;;39.10;23.08;;;3.90;99.90;;;;;;5138190;27;20054;-66
2022/01/19 08:53:40;;;;;;;40.03;23.38;;;3.90;99.90;;;;;;5136934;27;20066;-66
2022/01/19 08:56:05;;;;;;;44.75;26.13;;;4.00;99.90;;;;;;5138629;27;20042;-68
2022/01/19 08:58:32;;;;;;;44.47;24.50;;;3.90;99.90;;;;;;5156984;27;20031;-66
2022/01/19 09:00:58;;;;;;;41.30;24.55;;;4.00;99.90;;;;;;5138680;27;20095;-66
2022/01/19 09:03:23;;;;;;;47.78;26.23;;;4.00;99.90;;;;;;5127612;27;20432;-66
2022/01/19 09:05:49;;;;;;;42.72;24.88;;;4.00;99.90;;;;;;5117757;27;20057;-65
2022/01/19 09:08:14;;;;;;;52.47;27.73;;;4.10;99.90;;;;;;5117751;27;20035;-66
2022/01/19 09:10:41;;;;;;;47.50;26.83;;;4.10;99.90;;;;;;5117635;27;20101;-66
2022/01/19 09:13:10;;;;;;;41.67;25.17;;;4.10;99.90;;;;;;5124656;27;20062;-67
2022/01/19 09:15:36;;;;;;;44.67;25.52;;;4.20;99.90;;;;;;5138002;27;20037;-66
2022/01/19 09:18:02;;;;;;;44.15;24.83;;;4.20;99.90;;;;;;5124013;27;20054;-67
2022/01/19 09:20:27;;;;;;;42.15;25.10;;;4.20;99.90;;;;;;5117371;27;20043;-66
2022/01/19 09:22:53;;;;;;;49.40;26.80;;;4.30;99.90;;;;;;5122769;27;20099;-67
2022/01/19 09:25:19;;;;;;;47.83;26.27;;;4.30;99.90;;;;;;5138209;27;20042;-67
2022/01/19 09:27:45;;;;;;;51.78;27.35;;;4.30;99.90;;;;;;5136661;27;20431;-67
2022/01/19 09:30:16;;;;;;;47.38;26.08;;;4.30;99.90;;;;;;5120487;27;20053;-67
2022/01/19 09:32:45;;;;;;;49.75;28.23;;;4.30;99.90;;;;;;5108301;27;20046;-67
2022/01/19 09:35:11;;;;;;;50.20;27.70;;;4.30;99.90;;;;;;5117112;27;20050;-67
2022/01/19 09:37:39;;;;;;;49.47;26.67;;;4.40;99.90;;;;;;5134102;27;20038;-69
2022/01/19 09:40:07;;;;;;;54.85;27.55;;;4.40;99.90;;;;;;5155834;27;20031;-68
2022/01/19 09:42:34;;;;;;;50.58;28.02;;;4.40;99.90;;;;;;5136081;27;20159;-67
2022/01/19 09:45:00;;;;;;;46.90;27.40;;;4.40;99.90;;;;;;5137490;27;20047;-67
2022/01/19 09:47:25;;;;;;;53.65;28.80;;;4.40;99.90;;;;;;5137567;27;20053;-67
2022/01/19 09:49:51;;;;;;;50.90;29.33;;;4.40;99.90;;;;;;5137340;27;20130;-66
2022/01/19 09:52:16;;;;;;;54.47;28.83;;;4.40;99.90;;;;;;5136483;27;20074;-67
2022/01/19 09:54:42;;;;;;;57.33;30.55;;;4.40;99.90;;;;;;5116628;27;20035;-66
2022/01/19 09:57:08;;;;;;;54.50;28.55;;;4.40;99.90;;;;;;5116599;27;20051;-67
2022/01/19 09:59:33;;;;;;;56.28;30.10;;;4.40;99.90;;;;;;5116623;27;20058;-66
2022/01/19 10:02:02;;;;;;;55.38;29.77;;;4.40;99.90;;;;;;5116480;27;20115;-67
2022/01/19 10:04:36;;;;;;;55.92;29.60;;;4.50;99.90;;;;;;5134731;27;20399;-66
2022/01/19 10:07:13;;;;;;;57.38;32.25;;;4.50;99.90;;;;;;5137105;27;20438;-65
2022/01/19 10:09:58;;;;;;;60.15;31.17;;;4.40;99.90;;;;;;5112904;27;20427;-67
2022/01/19 10:18:14;;;;;;;60.90;33.35;;;4.50;99.90;;;;;;5123328;27;20046;-66
2022/01/19 10:20:41;;;;;;;60.03;34.50;;;4.60;99.90;;;;;;5127659;27;20043;-66
2022/01/19 10:23:38;;;;;;;60.30;33.80;;;4.60;99.90;;;;;;5130311;27;20038;-66
2022/01/19 10:26:10;;;;;;;63.00;35.22;;;4.60;99.90;;;;;;5119673;27;20048;-66
2022/01/19 10:28:56;;;;;;;62.83;34.08;;;4.70;99.90;;;;;;5137006;27;20031;-67
2022/01/19 10:31:21;;;;;;;66.18;34.28;;;4.70;99.90;;;;;;5135620;27;20296;-67
2022/01/19 10:34:11;;;;;;;67.22;36.08;;;4.70;99.90;;;;;;5099121;27;20452;-66
2022/01/19 10:36:50;;;;;;;63.97;34.72;;;4.70;99.90;;;;;;5099015;27;20041;-66
2022/01/19 10:39:18;;;;;;;66.95;36.95;;;4.80;99.90;;;;;;5116047;28;20118;-67
2022/01/19 10:42:09;;;;;;;62.40;33.05;;;4.80;99.90;;;;;;5116027;28;20540;-66
2022/01/19 10:44:48;;;;;;;64.43;36.80;;;4.80;99.90;;;;;;5121179;27;20043;-67
2022/01/19 10:47:17;;;;;;;69.22;36.13;;;4.80;99.90;;;;;;5098860;28;20062;-68
2022/01/19 10:49:54;;;;;;;70.38;36.70;;;4.80;99.90;;;;;;5115292;28;20088;-67
2022/01/19 10:52:39;;;;;;;69.07;36.25;;;4.90;99.90;;;;;;5135128;27;20103;-67
2022/01/19 10:55:09;;;;;;;64.57;37.45;;;4.90;99.90;;;;;;5098987;28;20092;-66
2022/01/19 10:57:38;;;;;;;67.28;36.67;;;4.80;99.90;;;;;;5115558;28;20035;-67
2022/01/19 11:00:33;;;;;;;69.22;36.88;;;4.80;99.90;;;;;;5098767;28;20046;-66
2022/01/19 11:03:21;;;;;;;71.22;37.17;;;4.80;99.90;;;;;;5115791;28;20054;-67
2022/01/19 11:05:50;;;;;;;69.13;37.35;;;4.90;99.90;;;;;;5099465;28;20155;-66
2022/01/19 11:08:18;;;;;;;74.57;38.38;;;4.90;99.90;;;;;;5115782;28;20039;-65
2022/01/19 11:10:52;;;;;;;70.20;37.65;;;5.00;99.90;;;;;;5115645;28;20047;-66
2022/01/19 11:13:28;;;;;;;69.18;38.08;;;5.00;99.90;;;;;;5123568;27;20145;-66
2022/01/19 11:15:55;;;;;;;76.85;40.25;;;4.90;99.90;;;;;;5135984;27;20030;-67
2022/01/19 11:18:22;;;;;;;73.95;39.00;;;5.00;99.90;;;;;;5136398;27;20034;-67
2022/01/19 11:20:49;;;;;;;78.53;40.22;;;5.00;99.90;;;;;;5136125;27;20385;-67
2022/01/19 11:23:31;;;;;;;82.03;40.78;;;4.90;99.90;;;;;;5128151;28;20047;-67
2022/01/19 11:26:09;;;;;;;69.80;36.90;;;4.90;99.90;;;;;;5115743;28;20122;-67
2022/01/19 11:28:46;;;;;;;77.88;39.63;;;5.00;99.90;;;;;;5115647;28;20146;-66
2022/01/19 11:31:15;;;;;;;75.90;39.05;;;4.90;99.90;;;;;;5115741;28;20050;-67
2022/01/19 11:33:44;;;;;;;79.80;42.33;;;4.90;99.90;;;;;;5126620;27;20220;-68
2022/01/19 11:36:22;;;;;;;66.53;37.30;;;4.80;99.90;;;;;;5135903;27;20070;-67
2022/01/19 11:39:10;;;;;;;76.97;39.13;;;4.90;99.90;;;;;;5135936;27;20100;-66
2022/01/19 11:41:43;;;;;;;71.25;39.38;;;4.90;99.90;;;;;;5138769;27;20042;-67
2022/01/19 11:44:37;;;;;;;75.03;40.50;;;4.90;99.90;;;;;;5120087;28;20043;-65
2022/01/19 11:47:09;;;;;;;75.80;40.58;;;4.90;99.90;;;;;;5115278;28;20095;-66
2022/01/19 11:50:00;;;;;;;69.63;37.55;;;5.00;99.90;;;;;;5098351;28;20049;-66
2022/01/19 11:52:38;;;;;;;71.63;36.72;;;5.10;99.90;;;;;;5111222;27;20085;-66
2022/01/19 11:55:17;;;;;;;79.05;41.72;;;5.10;99.90;;;;;;5115514;28;20050;-67
2022/01/19 11:57:46;;;;;;;74.60;41.17;;;5.10;99.90;;;;;;5115197;28;20047;-66
2022/01/19 12:00:22;;;;;;;72.07;36.90;;;5.00;99.90;;;;;;5099016;28;20151;-66
2022/01/19 12:02:54;;;;;;;72.82;38.88;;;5.10;99.90;;;;;;5118287;27;20035;-66
2022/01/19 12:05:36;;;;;;;72.65;39.30;;;5.10;99.90;;;;;;5118997;27;20086;-66
2022/01/19 12:08:25;;;;;;;70.30;38.90;;;5.00;99.90;;;;;;5118880;27;20129;-67
2022/01/19 12:10:56;;;;;;;72.03;38.55;;;5.00;99.90;;;;;;5118812;27;20109;-65
2022/01/19 12:13:40;;;;;;;70.22;40.38;;;5.10;99.90;;;;;;5126877;27;20050;-66
2022/01/19 12:19:10;;;;;;;71.03;38.75;;;5.10;99.90;;;;;;5139131;27;20038;-67
2022/01/19 12:21:53;;;;;;;76.78;38.85;;;5.20;99.90;;;;;;5139521;27;20110;-66
2022/01/19 12:24:29;;;;;;;70.10;38.33;;;5.20;99.90;;;;;;5156807;27;20046;-66
2022/01/19 12:26:57;;;;;;;68.18;37.10;;;5.20;99.90;;;;;;5139151;27;20081;-66
2022/01/19 12:29:36;;;;;;;70.55;37.67;;;5.20;99.90;;;;;;5139173;27;20125;-66
2022/01/19 12:32:25;;;;;;;66.70;36.03;;;5.20;99.90;;;;;;5131244;27;20049;-66
2022/01/19 12:34:57;;;;;;;75.47;38.58;;;5.20;99.90;;;;;;5089697;27;20674;-66
2022/01/19 12:37:38;;;;;;;64.68;32.92;;;5.20;99.90;;;;;;5138906;27;20340;-66
2022/01/19 12:40:24;;;;;;;65.05;36.03;;;5.30;99.90;;;;;;5157011;27;20034;-66
2022/01/19 12:42:56;;;;;;;63.80;37.25;;;5.20;99.90;;;;;;5117630;27;20114;-64
2022/01/19 12:45:27;;;;;;;64.47;35.92;;;5.20;99.90;;;;;;5118319;27;20421;-68
2022/01/19 12:48:01;;;;;;;67.68;35.20;;;5.20;99.90;;;;;;5136012;27;20092;-67
2022/01/19 12:50:29;;;;;;;62.95;37.15;;;5.20;99.90;;;;;;5116201;27;20050;-66
2022/01/19 12:52:58;;;;;;;62.90;34.25;;;5.20;99.90;;;;;;5136691;27;20071;-67
2022/01/19 12:55:30;;;;;;;65.53;35.67;;;5.20;99.90;;;;;;5138722;27;20073;-67
2022/01/19 12:57:57;;;;;;;65.68;35.10;;;5.20;99.90;;;;;;5138682;27;20034;-67
2022/01/19 13:00:27;;;;;;;63.85;35.03;;;5.30;99.90;;;;;;5138497;27;20038;-68
2022/01/19 13:02:53;;;;;;;59.47;33.28;;;5.20;99.90;;;;;;5133371;27;20035;-67
2022/01/19 13:05:21;;;;;;;60.30;35.10;;;5.20;99.90;;;;;;5133518;27;20095;-65
2022/01/19 13:07:56;;;;;;;63.92;33.78;;;5.30;99.90;;;;;;5137954;27;20061;-66
2022/01/19 13:10:42;;;;;;;60.25;33.15;;;5.30;99.90;;;;;;5138083;27;20137;-66
2022/01/19 13:13:12;;;;;;;65.25;35.80;;;5.40;99.90;;;;;;5119095;27;20034;-67
2022/01/19 13:15:44;;;;;;;61.65;34.60;;;5.40;99.90;;;;;;5137808;27;20035;-66
2022/01/19 13:18:11;;;;;;;57.90;32.58;;;5.40;99.90;;;;;;5138175;27;20046;-66
2022/01/19 13:20:54;;;;;;;60.38;33.75;;;5.40;99.90;;;;;;5137886;27;20039;-66
2022/01/19 13:23:20;;;;;;;58.13;34.10;;;5.40;99.90;;;;;;5135367;27;20053;-65
2022/01/19 13:25:58;;;;;;;58.28;32.58;;;5.40;99.90;;;;;;5135559;27;20069;-67
2022/01/19 13:28:31;;;;;;;57.40;33.30;;;5.50;99.90;;;;;;5137792;27;20043;-68
2022/01/19 13:31:12;;;;;;;61.20;35.55;;;5.60;99.90;;;;;;5137645;27;20085;-66
2022/01/19 13:33:40;;;;;;;57.55;33.95;;;5.50;99.90;;;;;;5126146;27;20050;-67
2022/01/19 13:36:06;;;;;;;53.85;32.20;;;5.50;99.90;;;;;;5155903;27;20427;-67
2022/01/19 13:38:33;;;;;;;53.92;32.88;;;5.50;99.90;;;;;;5137364;27;20038;-66
2022/01/19 13:41:09;;;;;;;57.45;33.50;;;5.50;99.90;;;;;;5137516;27;20097;-66
2022/01/19 13:43:38;;;;;;;52.20;31.95;;;5.50;99.90;;;;;;5127371;27;20159;-68
2022/01/19 13:46:15;;;;;;;53.25;31.98;;;5.50;99.90;;;;;;5135179;27;20305;-67
2022/01/19 13:48:47;;;;;;;53.85;31.27;;;5.50;99.90;;;;;;5117127;27;20072;-67
2022/01/19 13:51:18;;;;;;;53.17;31.65;;;5.50;99.90;;;;;;5083707;27;20367;-68
2022/01/19 13:53:49;;;;;;;52.72;31.67;;;5.50;99.90;;;;;;5144862;27;20420;-68
2022/01/19 13:56:27;;;;;;;55.35;32.65;;;5.50;99.90;;;;;;5137092;27;20039;-67
2022/01/19 13:59:04;;;;;;;54.58;31.92;;;5.50;99.90;;;;;;5119262;27;20042;-66
2022/01/19 14:01:40;;;;;;;57.20;32.47;;;5.60;99.90;;;;;;5116360;27;20317;-66
2022/01/19 14:04:11;;;;;;;56.22;31.35;;;5.60;99.90;;;;;;5129502;27;20117;-65
2022/01/19 14:06:41;;;;;;;53.88;30.13;;;5.60;99.90;;;;;;5103594;27;20121;-66
2022/01/19 14:09:08;;;;;;;52.08;28.70;;;5.70;99.90;;;;;;5119493;27;20046;-65
2022/01/19 14:11:35;;;;;;;46.90;26.27;;;5.70;99.90;;;;;;5136858;27;20050;-67
2022/01/19 14:14:07;;;;;;;53.03;29.98;;;5.80;99.90;;;;;;5135663;27;20045;-67
2022/01/19 14:16:46;;;;;;;48.42;29.15;;;5.90;99.90;;;;;;5136558;27;20130;-66
2022/01/19 14:19:15;;;;;;;49.38;30.08;;;5.80;99.90;;;;;;5136567;27;20089;-66
2022/01/19 14:21:59;;;;;;;54.65;28.70;;;5.80;99.90;;;;;;5136493;27;20118;-65